KLSE/LSE METAR and TAF weather

Enter ICAO airport designator
Station Type Date Time Source
KLSE METAR 2022/06/28 08:53 UTC NOAA

KLSE 280853Z AUTO 16008KT 10SM CLR 18/14 A3014 RMK AO2 SLP196 T01830139 56006


Station Type Date Time Source
KLSE Decoded METAR 2022/06/28 08:53 UTC NOAA

LA CROSSE MUNICIPAL AIRPORT , WI, United States (KLSE) 43-53N 091-15W 200M
Jun 28, 2022 - 04:53 AM EDT / 2022.06.28 0853 UTC
Wind: from the SSE (160 degrees) at 9 MPH (8 KT):0
Visibility: 10 mile(s):0
Sky conditions: clear
Temperature: 64.9 F (18.3 C)
Dew Point: 57.0 F (13.9 C)
Relative Humidity: 75%
Pressure (altimeter): 30.14 in. Hg (1020 hPa)
Pressure tendency: 0.02 inches (0.6 hPa) lower than three hours ago
ob: KLSE 280853Z AUTO 16008KT 10SM CLR 18/14 A3014 RMK AO2 SLP196 T01830139 56006
cycle: 9

Station Type Date Time Source
KLSE TAF 2022/06/28 06:22 UTC NOAA

TAF KLSE 280520Z 2806/2906 13005KT P6SM SCT100
FM281300 19007KT P6SM BKN120
FM281600 22009KT P6SM VCSH BKN080
FM290100 26008KT P6SM BKN100

Example: see airport list